Last 7 Days

Abernathy 3

Hourly Data | America/Los_Angeles
as of 3/7/21 1:29 PM PST
Date & Time Temp (°F) RH (%) Dew Pt (°F) Wind Spd (mph) Wind Dir (°) Wind Gust (mph) Latest Rain (In) Daily Rain (In) Daily Min Temp (°F) Daily Max Temp (°F)
3/7/21 - 1300 61.0 41 37.4 5.9 S | 181 10.8 0.00 0.00 35.7 62.1
3/7/21 - 1200 59.8 41 36.0 3.9 SSE | 168 8.8 0.00 0.00 35.7 60.4
3/7/21 - 1100 58.3 39 33.5 3.1 S | 177 7.8 0.00 0.00 35.7 58.9
3/7/21 - 1000 55.3 42 32.8 1.8 SSW | 196 5.1 0.00 0.00 35.7 57.9
3/7/21 - 0900 50.0 57 35.3 1.6 S | 186 4.1 0.00 0.00 35.7 54.0
3/7/21 - 0800 42.1 75 34.8 0.9 SW | 215 3.8 0.00 0.00 35.7 46.0
3/7/21 - 0700 37.5 78 31.1 2.7 WSW | 252 6.1 0.00 0.00 35.7 43.2
3/7/21 - 0600 38.7 79 32.7 3.9 WNW | 294 7.8 0.00 0.00 35.7 43.2
3/7/21 - 0500 36.1 88 32.8 3.3 WNW | 299 5.4 0.00 0.00 35.7 43.2
3/7/21 - 0400 36.8 88 33.6 2.2 WNW | 284 4.8 0.00 0.00 36.1 43.2
3/7/21 - 0300 38.3 87 34.8 2.0 WSW | 242 4.8 0.00 0.00 37.1 43.2
3/7/21 - 0200 39.9 84 35.4 1.8 SW | 234 4.4 0.00 0.00 38.2 43.2
3/7/21 - 0100 42.3 81 36.8 1.8 SSE | 159 4.1 0.00 0.00 41.3 43.2
3/7/21 - 0000 43.6 82 38.6 3.4 W | 273 7.1 0.00 0.04 38.9 63.0
3/6/21 - 2300 44.3 85 40.1 3.9 SW | 219 6.1 0.00 0.04 38.9 63.0
3/6/21 - 2200 45.8 82 40.6 4.5 SSW | 211 8.8 0.00 0.04 38.9 63.0
3/6/21 - 2100 47.6 76 40.3 5.0 SW | 220 10.8 0.00 0.04 38.9 63.0
3/6/21 - 2000 48.6 73 40.4 6.0 SW | 215 10.1 0.00 0.04 38.9 63.0
3/6/21 - 1900 50.9 70 41.6 3.4 SW | 217 7.1 0.00 0.04 38.9 63.0
3/6/21 - 1800 55.7 62 43.0 6.6 SW | 223 15.5 0.00 0.04 38.9 63.0
3/6/21 - 1700 59.5 56 43.7 8.1 SW | 225 13.2 0.00 0.04 38.9 63.0
3/6/21 - 1600 61.7 52 43.7 5.0 SW | 230 11.1 0.00 0.04 38.9 63.0
3/6/21 - 1500 61.4 49 42.1 3.5 SW | 214 9.5 0.00 0.04 38.9 62.3
3/6/21 - 1400 60.0 55 44.0 6.7 SW | 217 12.8 0.00 0.04 38.9 60.8
3/6/21 - 1300 58.5 55 42.6 4.4 SW | 235 10.5 0.00 0.04 38.9 59.7
3/6/21 - 1200 56.5 60 42.7 4.3 WSW | 244 9.5 0.00 0.04 38.9 57.6
3/6/21 - 1100 54.4 63 41.8 2.5 WSW | 242 7.4 0.00 0.04 38.9 56.5
3/6/21 - 1000 51.1 70 41.6 3.1 SW | 232 8.1 0.00 0.04 38.9 52.6
3/6/21 - 0900 47.4 80 41.6 6.2 SW | 233 11.8 0.00 0.04 38.9 49.1
3/6/21 - 0800 42.1 91 39.6 2.6 SSW | 213 8.1 0.00 0.04 38.9 47.3
3/6/21 - 0700 40.8 89 37.8 1.5 N | 356 6.4 0.00 0.04 38.9 47.3
3/6/21 - 0600 42.5 89 39.6 4.4 SSW | 205 8.1 0.00 0.04 41.7 47.3
3/6/21 - 0500 42.6 89 39.7 4.5 SW | 219 10.5 0.00 0.04 41.7 47.3
3/6/21 - 0400 44.6 89 41.7 8.8 WSW | 256 16.5 0.00 0.04 43.7 47.3
3/6/21 - 0300 45.5 88 42.2 9.0 SW | 233 17.5 0.00 0.04 45.0 47.3
3/6/21 - 0200 46.3 90 43.4 6.2 SSW | 202 17.5 0.01 0.04 45.9 47.3
3/6/21 - 0100 46.7 87 43.0 4.7 WSW | 240 13.2 0.03 0.03 46.4 47.3
3/6/21 - 0000 48.0 87 44.3 11.2 W | 264 22.9 0.07 0.11 38.1 64.0
3/5/21 - 2300 54.0 80 48.2 6.4 SSE | 154 29.6 0.04 0.04 38.1 64.0
3/5/21 - 2200 53.3 85 48.8 4.4 S | 176 10.8 0.00 0.00 38.1 64.0
3/5/21 - 2100 54.4 83 49.4 7.7 SSW | 209 15.5 0.00 0.00 38.1 64.0
3/5/21 - 2000 53.9 85 49.4 8.2 SW | 215 15.8 0.00 0.00 38.1 64.0
3/5/21 - 1900 54.9 79 48.5 10.0 SW | 226 17.8 0.00 0.00 38.1 64.0
3/5/21 - 1800 57.8 69 47.5 8.9 SW | 221 15.5 0.00 0.00 38.1 64.0
3/5/21 - 1700 61.4 57 45.9 11.5 SW | 219 17.5 0.00 0.00 38.1 64.0
3/5/21 - 1600 63.3 53 46.0 9.7 SW | 228 17.2 0.00 0.00 38.1 64.0
3/5/21 - 1500 63.3 53 46.0 9.0 SW | 230 14.5 0.00 0.00 38.1 63.9
3/5/21 - 1400 62.9 55 46.4 9.2 SW | 226 15.2 0.00 0.00 38.1 63.7
3/5/21 - 1300 61.5 56 45.9 8.3 SW | 232 14.5 0.00 0.00 38.1 62.4
3/5/21 - 1200 59.6 58 44.8 9.2 SW | 230 14.8 0.00 0.00 38.1 60.4
3/5/21 - 1100 59.3 56 43.8 8.9 SW | 235 14.2 0.00 0.00 38.1 59.9
3/5/21 - 1000 57.7 60 44.0 6.7 WSW | 242 13.2 0.00 0.00 38.1 58.9
3/5/21 - 0900 53.2 70 43.6 3.6 W | 262 10.8 0.00 0.00 38.1 56.1
3/5/21 - 0800 42.7 86 38.8 2.2 WNW | 297 5.4 0.00 0.00 38.1 47.9
3/5/21 - 0700 39.6 87 36.1 2.4 W | 281 5.4 0.00 0.00 38.1 44.7
3/5/21 - 0600 42.0 85 37.8 4.0 WNW | 285 7.4 0.00 0.00 39.4 44.7
3/5/21 - 0500 41.7 88 38.5 4.0 WNW | 303 5.8 0.00 0.00 39.4 44.7
3/5/21 - 0400 43.5 84 39.1 4.2 WNW | 298 6.8 0.00 0.00 39.4 44.7
3/5/21 - 0300 42.3 85 38.0 3.0 WNW | 299 8.1 0.00 0.00 39.4 44.6
3/5/21 - 0200 41.9 84 37.3 3.6 WNW | 300 7.4 0.00 0.00 39.4 42.7
3/5/21 - 0100 40.5 84 36.0 2.8 WNW | 301 6.1 0.00 0.00 39.4 41.3
3/5/21 - 0000 42.3 76 35.4 1.6 WNW | 302 4.8 0.00 0.00 36.9 63.3
3/4/21 - 2300 43.4 74 35.6 4.3 WNW | 299 8.1 0.00 0.00 36.9 63.3
3/4/21 - 2200 48.2 71 39.2 1.8 SSE | 158 4.4 0.00 0.00 36.9 63.3
3/4/21 - 2100 51.4 61 38.3 4.1 SW | 228 9.5 0.00 0.00 36.9 63.3
3/4/21 - 2000 52.7 60 39.1 6.4 SW | 231 10.8 0.00 0.00 36.9 63.3
3/4/21 - 1900 53.7 66 42.5 7.7 SW | 236 13.8 0.00 0.00 36.9 63.3
3/4/21 - 1800 56.8 61 43.4 8.0 SW | 223 14.8 0.00 0.00 36.9 63.3
3/4/21 - 1700 61.4 46 40.1 8.2 SW | 228 13.2 0.00 0.00 36.9 63.3
3/4/21 - 1600 63.0 39 37.8 8.3 SW | 225 12.5 0.00 0.00 36.9 63.3
3/4/21 - 1500 62.0 46 41.2 8.4 WSW | 247 13.5 0.00 0.00 36.9 62.7
3/4/21 - 1400 60.6 49 41.4 6.8 SW | 229 12.8 0.00 0.00 36.9 61.8
3/4/21 - 1300 58.8 55 42.5 7.7 SW | 228 14.2 0.00 0.00 36.9 60.0
3/4/21 - 1200 57.3 56 41.9 7.1 SW | 221 14.2 0.00 0.00 36.9 58.7
3/4/21 - 1100 55.8 59 41.6 6.7 SSW | 204 11.8 0.00 0.00 36.9 57.0
3/4/21 - 1000 53.7 65 42.1 6.6 SW | 218 11.5 0.00 0.00 36.9 54.7
3/4/21 - 0900 50.1 73 41.9 3.3 WNW | 289 8.4 0.00 0.00 36.9 53.2
3/4/21 - 0800 41.7 91 39.1 4.9 NW | 305 8.4 0.00 0.00 36.9 46.3
3/4/21 - 0700 37.3 93 35.4 3.7 NW | 318 6.4 0.00 0.00 36.9 46.0
3/4/21 - 0600 39.6 89 36.5 1.6 SSW | 195 4.1 0.00 0.00 37.6 46.0
3/4/21 - 0500 42.1 86 38.1 3.0 WSW | 258 5.1 0.00 0.00 40.6 46.0
3/4/21 - 0400 44.5 82 39.5 5.9 WSW | 256 11.5 0.00 0.00 43.2 46.0
3/4/21 - 0300 45.1 82 39.8 6.8 W | 266 13.2 0.00 0.00 43.8 46.0
3/4/21 - 0200 45.4 81 40.0 7.8 W | 268 14.2 0.00 0.00 43.8 46.0
3/4/21 - 0100 45.0 82 39.9 5.8 WSW | 238 10.8 0.00 0.00 43.8 46.0
3/4/21 - 0000 44.6 84 40.0 5.8 WSW | 254 10.5 0.00 0.00 34.4 66.6
3/3/21 - 2300 46.5 82 41.1 6.6 WSW | 257 12.5 0.00 0.00 34.4 66.6
3/3/21 - 2200 47.7 80 41.7 4.9 WSW | 244 12.5 0.00 0.00 34.4 66.6
3/3/21 - 2100 48.2 78 41.8 4.0 SW | 236 10.8 0.00 0.00 34.4 66.6
3/3/21 - 2000 49.0 79 42.8 2.3 WSW | 243 9.8 0.00 0.00 34.4 66.6
3/3/21 - 1900 50.5 75 43.0 3.6 SW | 222 12.8 0.00 0.00 34.4 66.6
3/3/21 - 1800 55.3 64 43.4 5.4 SW | 230 13.2 0.00 0.00 34.4 66.6
3/3/21 - 1700 57.4 62 44.4 7.2 SW | 215 15.2 0.00 0.00 34.4 66.6
3/3/21 - 1600 60.2 53 43.1 9.4 SW | 225 16.2 0.00 0.00 34.4 66.6
3/3/21 - 1500 63.1 48 43.2 9.5 SW | 218 17.5 0.00 0.00 34.4 66.6
3/3/21 - 1400 65.8 40 41.0 8.3 SW | 224 14.8 0.00 0.00 34.4 66.6
3/3/21 - 1300 63.8 47 43.2 8.1 SSW | 210 13.5 0.00 0.00 34.4 65.5
3/3/21 - 1200 61.4 51 43.3 7.6 SSW | 206 12.8 0.00 0.00 34.4 62.9
3/3/21 - 1100 59.0 49 39.7 5.1 S | 189 8.8 0.00 0.00 34.4 61.0
3/3/21 - 1000 54.5 54 38.2 3.2 SSW | 194 5.4 0.00 0.00 34.4 57.5
3/3/21 - 0900 45.5 78 39.0 1.2 WSW | 250 3.4 0.00 0.00 34.4 50.0
3/3/21 - 0800 39.3 83 34.4 3.4 NW | 310 5.4 0.00 0.00 34.4 48.0
3/3/21 - 0700 35.8 86 32.0 2.6 N | 358 4.4 0.00 0.00 34.4 48.0
3/3/21 - 0600 36.1 86 32.3 1.4 WSW | 247 4.4 0.00 0.00 34.5 48.0
3/3/21 - 0500 38.0 83 33.2 0.8 N | 350 3.1 0.00 0.00 37.1 48.0
3/3/21 - 0400 41.0 75 33.8 0.4 SSW | 213 2.1 0.00 0.00 38.9 48.0
3/3/21 - 0300 42.6 68 32.8 1.2 S | 190 7.1 0.00 0.00 40.2 48.0
3/3/21 - 0200 45.0 63 33.0 2.5 SW | 236 6.8 0.00 0.00 40.2 48.0
3/3/21 - 0100 41.4 74 33.6 4.5 WNW | 286 6.8 0.00 0.00 40.2 43.0
3/3/21 - 0000 40.6 79 34.6 2.4 W | 269 5.1 0.00 0.00 34.5 70.2
3/2/21 - 2300 43.2 75 35.7 2.9 W | 264 5.1 0.00 0.00 34.5 70.2
3/2/21 - 2200 44.5 75 37.0 2.9 WNW | 284 6.1 0.00 0.00 34.5 70.2
3/2/21 - 2100 46.7 72 38.0 2.2 WNW | 285 4.1 0.00 0.00 34.5 70.2
3/2/21 - 2000 50.0 69 40.0 2.7 WNW | 292 4.8 0.00 0.00 34.5 70.2
3/2/21 - 1900 55.4 61 41.9 0.8 WSW | 239 3.1 0.00 0.00 34.5 70.2
3/2/21 - 1800 61.8 47 41.5 1.1 S | 189 3.4 0.00 0.00 34.5 70.2
3/2/21 - 1700 65.6 39 40.1 3.1 SSW | 203 7.1 0.00 0.00 34.5 70.2
3/2/21 - 1600 69.1 30 36.1 2.6 SW | 222 5.8 0.00 0.00 34.5 70.2
3/2/21 - 1500 69.5 29 35.4 4.0 WSW | 242 9.5 0.00 0.00 34.5 70.2
3/2/21 - 1400 68.5 29 35.1 4.3 SW | 220 8.8 0.00 0.00 34.5 69.5
3/2/21 - 1300 66.2 32 35.5 2.9 SSW | 209 7.4 0.00 0.00 34.5 67.4
3/2/21 - 1200 62.2 39 36.6 4.0 WSW | 238 8.4 0.00 0.00 34.5 64.4
3/2/21 - 1100 58.4 44 36.4 3.3 SSW | 192 8.1 0.00 0.00 34.5 59.4
3/2/21 - 1000 55.3 49 36.6 1.2 S | 179 5.1 0.00 0.00 34.5 56.7
3/2/21 - 0900 46.6 65 35.5 0.6 N | 357 2.7 0.00 0.00 34.5 52.5
3/2/21 - 0800 37.1 80 31.7 0.5 ENE | 58 2.7 0.00 0.00 34.5 49.1
3/2/21 - 0700 35.2 79 29.4 1.5 NW | 312 3.8 0.00 0.00 34.5 49.1
3/2/21 - 0600 35.6 80 30.1 2.4 WNW | 296 5.1 0.00 0.00 34.8 49.1
3/2/21 - 0500 35.6 80 30.2 2.4 NNW | 331 5.1 0.00 0.00 34.8 49.1
3/2/21 - 0400 37.8 74 30.2 2.0 N | 4 3.8 0.00 0.00 36.3 49.1
3/2/21 - 0300 40.6 65 29.7 0.9 SE | 133 3.4 0.00 0.00 39.0 49.1
3/2/21 - 0200 45.0 55 29.5 2.1 SSW | 208 5.8 0.00 0.00 41.3 49.1
3/2/21 - 0100 46.7 51 29.2 5.3 NNW | 330 9.5 0.00 0.00 41.3 49.1
3/2/21 - 0000 41.9 65 31.1 2.0 W | 271 5.1 0.00 0.00 32.0 67.3
3/1/21 - 2300 44.1 61 31.6 4.4 WNW | 295 7.1 0.00 0.00 32.0 67.3
3/1/21 - 2200 42.4 71 33.6 2.9 WNW | 298 5.1 0.00 0.00 32.0 67.3
3/1/21 - 2100 44.2 68 34.4 2.9 WNW | 296 4.8 0.00 0.00 32.0 67.3
3/1/21 - 2000 48.5 57 33.9 2.3 W | 273 5.8 0.00 0.00 32.0 67.3
3/1/21 - 1900 52.6 52 35.4 3.7 NW | 314 6.1 0.00 0.00 32.0 67.3
3/1/21 - 1800 61.3 38 35.1 2.7 W | 270 5.8 0.00 0.00 32.0 67.3
3/1/21 - 1700 65.3 29 32.3 3.9 SW | 235 7.4 0.00 0.00 32.0 67.3
3/1/21 - 1600 65.7 31 34.0 6.6 WSW | 244 11.5 0.00 0.00 32.0 67.3
3/1/21 - 1500 66.2 32 35.2 5.4 WSW | 249 10.5 0.00 0.00 32.0 67.3
3/1/21 - 1400 65.9 30 33.3 3.4 SW | 220 10.1 0.00 0.00 32.0 67.3
3/1/21 - 1300 63.7 33 33.8 3.1 SW | 222 7.1 0.00 0.00 32.0 64.8
3/1/21 - 1200 61.7 33 31.9 4.7 SSW | 198 10.5 0.00 0.00 32.0 62.8
3/1/21 - 1100 59.9 35 32.0 5.9 SSW | 202 10.5 0.00 0.00 32.0 61.2
3/1/21 - 1000 55.7 49 37.0 1.9 S | 183 7.4 0.00 0.00 32.0 59.3
3/1/21 - 0900 47.9 66 37.2 0.5 NW | 309 3.1 0.00 0.00 32.0 51.6
3/1/21 - 0800 38.0 87 34.4 0.7 WNW | 291 3.1 0.00 0.00 32.0 43.6
3/1/21 - 0700 32.9 91 30.5 1.8 WNW | 294 4.8 0.00 0.00 32.0 41.3
3/1/21 - 0600 34.1 89 31.3 0.6 NNW | 327 2.7 0.00 0.00 33.6 41.3
3/1/21 - 0500 34.3 89 31.3 0.9 NNW | 327 2.7 0.00 0.00 33.8 41.3
3/1/21 - 0400 35.4 84 31.2 0.9 W | 266 3.4 0.00 0.00 34.3 41.3
3/1/21 - 0300 38.3 78 32.2 0.8 W | 278 3.1 0.00 0.00 37.0 41.3
3/1/21 - 0200 39.5 76 32.7 2.1 NW | 304 4.8 0.00 0.00 38.6 41.3
3/1/21 - 0100 40.9 72 32.6 2.3 NW | 318 4.4 0.00 0.00 40.7 41.3
3/1/21 - 0000 42.4 69 32.8 3.1 NW | 307 6.8 0.00 0.00 36.1 66.9
2/28/21 - 2300 43.1 68 33.2 4.0 NW | 314 6.8 0.00 0.00 36.1 66.9
2/28/21 - 2200 42.9 70 33.9 4.1 NW | 309 6.4 0.00 0.00 36.1 66.9
2/28/21 - 2100 42.8 73 34.8 3.2 NW | 314 5.4 0.00 0.00 36.1 66.9
2/28/21 - 2000 45.9 65 34.9 3.0 NW | 311 6.4 0.00 0.00 36.1 66.9
2/28/21 - 1900 53.4 49 34.1 2.4 NNW | 338 5.1 0.00 0.00 36.1 66.9
2/28/21 - 1800 62.6 27 28.0 4.4 ENE | 71 10.8 0.00 0.00 36.1 66.9
2/28/21 - 1700 64.8 24 26.9 6.7 NE | 48 11.8 0.00 0.00 36.1 66.9
2/28/21 - 1600 66.1 24 27.8 7.5 NE | 47 13.2 0.00 0.00 36.1 66.9
2/28/21 - 1500 66.3 24 28.2 6.7 NNE | 31 12.5 0.00 0.00 36.1 66.9
2/28/21 - 1400 65.3 24 27.6 8.8 NNE | 32 16.8 0.00 0.00 36.1 65.8
Max 69.5 93 49.4 11.5 - 29.6 0.07 0.11 46.4 70.2
Avg 50.3 66 37.8 4.4 - 9.0 0.00 - - -
Min 32.9 24 26.9 0.4 - 2.1 0.00 0.00 32.0 41.3
Total - - - - - - 0.15 - - -
Tip: Bookmark this page for easy future reference